AirNav   Air Wisconsin pilot careers
 
 899 users online  

CL35 Warner Springs Gliderport
Warner Springs, California, USA

GOING TO WARNER SPRINGS?


FAA INFORMATION EFFECTIVE 28 MARCH 2019

Location

FAA Identifier: CL35
Lat/Long: 33-17-04.2100N / 116-40-10.7650W
33-17.070167N / 116-40.179417W
33.2845028 / -116.6696569
(estimated)
Elevation: 2880 ft. / 878 m (estimated)
Variation: 13E (1985)
From city: 2 miles E of WARNER SPRINGS, CA
Time zone: UTC -7 (UTC -8 during Standard Time)
Zip code: 92086

Gliderport Operations

Gliderport use: Private use. Permission required prior to landing
Activation date: 10/1984
Control tower: no
ARTCC: LOS ANGELES CENTER
FSS: SAN DIEGO FLIGHT SERVICE STATION
Attendance: 0900-1700
Wind indicator: yes
Segmented circle: yes
Landing fee: yes

Gliderport Communications

UNICOM: 122.8
WX AWOS-3P at L08 (18 nm E): 126.575 (760-767-3308)
WX ASOS at RNM (19 nm SW): 132.025 (760-789-0736)

Nearby radio navigation aids

VOR radial/distance  VOR name  Freq  Var
JLIr319/9.6JULIAN VORTAC114.0015E
TRMr218/32.8THERMAL VORTAC116.2013E
PSPr186/37.1PALM SPRINGS VORTAC115.5013E
OCNr071/37.6OCEANSIDE VORTAC115.3015E
HDFr125/(39.2)HOMELAND VOR113.4014E

Gliderport Services

Runway Information

Runway 8/26

Dimensions: 3500 x 70 ft. / 1067 x 21 m
Surface: asphalt
RUNWAY 8  RUNWAY 26
Latitude: 33-17.060333N33-17.080000N
Longitude: 116-40.522667W116-39.836167W
Elevation: 2873.0 ft.2914.0 ft.
Traffic pattern: leftleft
Obstructions: none200 ft. hill, 5200 ft. from runway

Gliderport Ownership and Management from official FAA records

Ownership: Privately-owned
Owner: WARNER SPRINGS RANCH RESORT, LLC
31930 HWY 79
WARNER SPRINGS, CA 92086
Phone 760-782-4200
SKY SAILING 31930 HWY 79.
Manager: BRET WILLAT
SKY SAILING 31930 HWY 79
WARNER SPRINGS, CA 92086
Phone 760-782-0404
LEASEE.

Gliderport Operational Statistics

Aircraft based on the field: 80
Single engine airplanes: 10
Gliders airplanes: 70
    

Instrument Procedures

There are no published instrument procedures at CL35.

Some nearby airports with instrument procedures:

L08 - Borrego Valley Airport (18 nm E)
KRNM - Ramona Airport (19 nm SW)
F70 - French Valley Airport (29 nm NW)
L18 - Fallbrook Community Airpark (29 nm W)
KSEE - Gillespie Field Airport (31 nm SW)
 
Loc | Ops | Rwys | IFR | FBO | Links
Com | Nav | Svcs | Stats | Notes
Area around CL35 (Warner Springs Gliderport)
 
Road maps at: MapQuest Bing Google
 
Aerial photo
WARNING: Photo may not be current or correct
Aerial photo of CL35 (Warner Springs Gliderport)
Photo by Steve Lupinacci
Photo taken 27-May-2008

Do you have a better or more recent aerial photo of Warner Springs Gliderport that you would like to share? If so, please send us your photo.

 
Sectional chart

 
Airport distance calculator
Flying to Warner Springs Gliderport? Find the distance to fly.

From to CL35

Sunrise and sunset
Times for 21-Apr-2019
 Local
(UTC-7)
 Zulu
(UTC)
Morning civil twilight05:4512:45
Sunrise06:1013:10
Sunset19:2102:21
Evening civil twilight19:4602:46

Current date and time
Zulu (UTC)  21-Apr-2019 19:17:40
Local (UTC-7)  21-Apr-2019 12:17:40
 
METAR
KL08 
18nm E 
211855Z AUTO 28007KT 230V010 10SM CLR 26/M02 A2987 RMK AO2
KRNM 
20nm SW 
211853Z 27007KT 10SM SCT018 BKN030 17/08 A3003 RMK AO2 SLP162 T01720083
KF70 
29nm NW 
211855Z AUTO 19007KT 10SM SCT040 17/06 A3003 RMK AO1
KL18 
29nm W 
211855Z AUTO 23006KT 10SM SCT025 BKN038 17/10 A3004 RMK AO2
KSEE 
32nm SW 
211847Z 28007KT 10SM SCT032 BKN037 18/08 A3005
KCRQ 
32nm W 
211853Z 27006KT 10SM SCT023 BKN028 BKN036 17/10 A3004 RMK AO2 SLP170 T01670100
KTRM 
33nm NE 
211852Z AUTO 35010G14KT 10SM CLR 28/02 A2987 RMK AO2 SLP115 T02780022
KPSP 
33nm N 
211853Z 01010KT 310V040 10SM CLR 26/03 A2991 RMK AO2 PK WND 32029/1804 SLP127 T02560033
KNFG 
33nm W 
211855Z AUTO 23007KT SCT028 OVC039 17/11 A3004 RMK AO2 SLP171 T01720111 $
KNKX 
34nm SW 
211855Z 25006KT 10SM FEW029 FEW036 19/09 A3004 RMK AO2 SLP168 T01890089
TAF
KCRQ 
32nm W 
211720Z 2118/2218 23008KT P6SM BKN025 FM212000 23010KT P6SM SCT035 FM220200 21005KT P6SM SCT020 FM220600 VRB04KT P6SM BKN015 FM221500 VRB03KT P6SM BKN025 FM221700 26007KT P6SM SCT025
KTRM 
33nm NE 
211720Z 2118/2218 32010KT P6SM SKC FM212300 29013G23KT P6SM SKC FM220100 33017G27KT P6SM SKC
KPSP 
33nm N 
211720Z 2118/2218 32015G25KT P6SM SKC FM220800 32011G18KT P6SM SKC
KNFG 
33nm W 
2115/2215 VRB05KT 9999 FEW020 BKN040 QNH3001INS BECMG 2117/2119 21009KT 9999 SCT040 QNH2993INS BECMG 2205/2207 VRB05KT 9999 BKN020 QNH2997INS AUTOMATED SENSOR METWATCH 2115 TIL 2214 T18/2121Z T10/2214Z
KNKX 
34nm SW 
2115/2215 VRB05KT 9999 SCT020 OVC040 QNH3001INS BECMG 2117/2119 25007KT 9999 BKN040 QNH2993INS BECMG 2205/2207 VRB05KT 9999 OVC015 QNH2997INS T20/2121Z T12/2214Z
NOTAMs
Click for the latest NOTAMs
NOTAMs are issued by the DoD/FAA and will open in a separate window not controlled by AirNav.

 

 
 

Would you like to see your business listed on this page?

 If your business provides an interesting product or service to pilots, flight crews, aircraft, or users of the Warner Springs Gliderport, you should consider listing it here.  To start the listing process, click on the button below
 
Add a business
 

Other Pages about Warner Springs Gliderport

www.agcsc.org/warner_springs_info.html
 
Update a link
 
Copyright © AirNav, LLC. All rights reserved. Privacy Policy  Contact